sensor_id;sensor_type;location;lat;lon;timestamp;P1;durP1;ratioP1;P2;durP2;ratioP2
5454;SDS011;2750;49.050;9.250;2024-03-08T00:03:36;23.53;;;16.90;;
5454;SDS011;2750;49.050;9.250;2024-03-08T00:08:44;24.47;;;16.57;;
5454;SDS011;2750;49.050;9.250;2024-03-08T00:13:46;22.27;;;15.60;;
5454;SDS011;2750;49.050;9.250;2024-03-08T00:18:52;23.87;;;15.77;;
5454;SDS011;2750;49.050;9.250;2024-03-08T00:23:59;24.13;;;15.87;;
5454;SDS011;2750;49.050;9.250;2024-03-08T00:29:13;23.30;;;16.20;;
5454;SDS011;2750;49.050;9.250;2024-03-08T00:34:29;30.47;;;15.93;;
5454;SDS011;2750;49.050;9.250;2024-03-08T00:39:36;24.80;;;16.67;;
5454;SDS011;2750;49.050;9.250;2024-03-08T00:44:41;27.63;;;16.60;;
5454;SDS011;2750;49.050;9.250;2024-03-08T00:49:46;26.30;;;16.43;;
5454;SDS011;2750;49.050;9.250;2024-03-08T00:54:52;22.43;;;15.43;;
5454;SDS011;2750;49.050;9.250;2024-03-08T00:59:55;27.07;;;16.17;;
5454;SDS011;2750;49.050;9.250;2024-03-08T01:04:58;23.30;;;15.33;;
5454;SDS011;2750;49.050;9.250;2024-03-08T01:10:04;21.87;;;15.93;;
5454;SDS011;2750;49.050;9.250;2024-03-08T01:15:12;23.57;;;15.80;;
5454;SDS011;2750;49.050;9.250;2024-03-08T01:20:31;27.33;;;16.70;;
5454;SDS011;2750;49.050;9.250;2024-03-08T01:25:36;22.23;;;14.53;;
5454;SDS011;2750;49.050;9.250;2024-03-08T01:30:46;27.40;;;16.60;;
5454;SDS011;2750;49.050;9.250;2024-03-08T01:35:57;22.73;;;15.20;;
5454;SDS011;2750;49.050;9.250;2024-03-08T01:41:00;24.73;;;15.80;;
5454;SDS011;2750;49.050;9.250;2024-03-08T01:46:19;25.80;;;15.17;;
5454;SDS011;2750;49.050;9.250;2024-03-08T01:51:32;21.40;;;14.20;;
5454;SDS011;2750;49.050;9.250;2024-03-08T01:56:52;24.30;;;14.90;;
5454;SDS011;2750;49.050;9.250;2024-03-08T02:01:55;23.53;;;15.60;;
5454;SDS011;2750;49.050;9.250;2024-03-08T02:07:06;27.10;;;16.57;;
5454;SDS011;2750;49.050;9.250;2024-03-08T02:12:11;22.97;;;14.97;;
5454;SDS011;2750;49.050;9.250;2024-03-08T02:17:16;24.97;;;16.13;;
5454;SDS011;2750;49.050;9.250;2024-03-08T02:22:25;24.40;;;14.97;;
5454;SDS011;2750;49.050;9.250;2024-03-08T02:27:29;23.43;;;14.37;;
5454;SDS011;2750;49.050;9.250;2024-03-08T02:32:31;23.10;;;16.17;;
5454;SDS011;2750;49.050;9.250;2024-03-08T02:37:36;24.10;;;13.90;;
5454;SDS011;2750;49.050;9.250;2024-03-08T02:42:41;21.67;;;14.40;;
5454;SDS011;2750;49.050;9.250;2024-03-08T02:47:43;24.00;;;15.63;;
5454;SDS011;2750;49.050;9.250;2024-03-08T02:52:51;23.00;;;15.23;;
5454;SDS011;2750;49.050;9.250;2024-03-08T02:57:56;23.73;;;15.40;;
5454;SDS011;2750;49.050;9.250;2024-03-08T03:03:18;23.30;;;16.30;;
5454;SDS011;2750;49.050;9.250;2024-03-08T03:08:22;23.10;;;15.37;;
5454;SDS011;2750;49.050;9.250;2024-03-08T03:13:27;23.63;;;15.13;;
5454;SDS011;2750;49.050;9.250;2024-03-08T03:18:32;25.17;;;16.87;;
5454;SDS011;2750;49.050;9.250;2024-03-08T03:23:35;26.93;;;16.10;;
5454;SDS011;2750;49.050;9.250;2024-03-08T03:28:43;24.57;;;16.33;;
5454;SDS011;2750;49.050;9.250;2024-03-08T03:33:48;26.10;;;16.23;;
5454;SDS011;2750;49.050;9.250;2024-03-08T03:38:56;27.17;;;16.27;;
5454;SDS011;2750;49.050;9.250;2024-03-08T03:44:10;22.90;;;15.53;;
5454;SDS011;2750;49.050;9.250;2024-03-08T03:49:13;24.23;;;15.90;;
5454;SDS011;2750;49.050;9.250;2024-03-08T03:54:21;25.40;;;16.57;;
5454;SDS011;2750;49.050;9.250;2024-03-08T03:59:30;20.67;;;14.73;;
5454;SDS011;2750;49.050;9.250;2024-03-08T04:04:33;25.10;;;16.17;;
5454;SDS011;2750;49.050;9.250;2024-03-08T04:09:38;27.33;;;16.87;;
5454;SDS011;2750;49.050;9.250;2024-03-08T04:14:41;24.60;;;16.23;;
5454;SDS011;2750;49.050;9.250;2024-03-08T04:19:48;24.37;;;16.37;;
5454;SDS011;2750;49.050;9.250;2024-03-08T04:24:52;23.20;;;15.47;;
5454;SDS011;2750;49.050;9.250;2024-03-08T04:29:56;27.60;;;15.93;;
5454;SDS011;2750;49.050;9.250;2024-03-08T04:35:07;25.20;;;16.10;;
5454;SDS011;2750;49.050;9.250;2024-03-08T04:40:14;25.83;;;16.17;;
5454;SDS011;2750;49.050;9.250;2024-03-08T04:45:17;27.30;;;16.67;;
5454;SDS011;2750;49.050;9.250;2024-03-08T04:50:22;24.47;;;16.57;;
5454;SDS011;2750;49.050;9.250;2024-03-08T04:55:33;26.20;;;16.23;;
5454;SDS011;2750;49.050;9.250;2024-03-08T05:00:39;23.43;;;16.27;;
5454;SDS011;2750;49.050;9.250;2024-03-08T05:05:45;25.60;;;15.73;;
5454;SDS011;2750;49.050;9.250;2024-03-08T05:10:56;27.77;;;17.90;;
5454;SDS011;2750;49.050;9.250;2024-03-08T05:16:04;29.40;;;17.43;;
5454;SDS011;2750;49.050;9.250;2024-03-08T05:21:29;27.87;;;18.20;;
5454;SDS011;2750;49.050;9.250;2024-03-08T05:26:39;27.07;;;17.23;;
5454;SDS011;2750;49.050;9.250;2024-03-08T05:31:47;31.07;;;17.77;;
5454;SDS011;2750;49.050;9.250;2024-03-08T05:36:55;28.80;;;19.50;;
5454;SDS011;2750;49.050;9.250;2024-03-08T05:42:03;27.40;;;18.47;;
5454;SDS011;2750;49.050;9.250;2024-03-08T05:47:21;31.27;;;19.33;;
5454;SDS011;2750;49.050;9.250;2024-03-08T05:52:27;31.93;;;20.60;;
5454;SDS011;2750;49.050;9.250;2024-03-08T05:57:36;27.83;;;18.87;;
5454;SDS011;2750;49.050;9.250;2024-03-08T06:02:40;28.97;;;18.33;;
5454;SDS011;2750;49.050;9.250;2024-03-08T06:07:48;27.63;;;17.70;;
5454;SDS011;2750;49.050;9.250;2024-03-08T06:12:58;28.97;;;18.70;;
5454;SDS011;2750;49.050;9.250;2024-03-08T06:18:13;26.40;;;18.03;;
5454;SDS011;2750;49.050;9.250;2024-03-08T06:23:15;27.40;;;16.97;;
5454;SDS011;2750;49.050;9.250;2024-03-08T06:28:23;26.43;;;17.90;;
5454;SDS011;2750;49.050;9.250;2024-03-08T06:33:43;28.57;;;19.27;;
5454;SDS011;2750;49.050;9.250;2024-03-08T06:38:54;26.10;;;17.70;;
5454;SDS011;2750;49.050;9.250;2024-03-08T06:44:00;25.97;;;17.30;;
5454;SDS011;2750;49.050;9.250;2024-03-08T06:49:24;25.33;;;16.77;;
5454;SDS011;2750;49.050;9.250;2024-03-08T06:54:35;30.40;;;18.53;;
5454;SDS011;2750;49.050;9.250;2024-03-08T06:59:45;26.00;;;17.37;;
5454;SDS011;2750;49.050;9.250;2024-03-08T07:04:50;27.10;;;18.73;;
5454;SDS011;2750;49.050;9.250;2024-03-08T07:09:53;26.73;;;18.13;;
5454;SDS011;2750;49.050;9.250;2024-03-08T07:15:02;24.97;;;16.87;;
5454;SDS011;2750;49.050;9.250;2024-03-08T07:20:17;24.63;;;18.23;;
5454;SDS011;2750;49.050;9.250;2024-03-08T07:25:24;24.53;;;16.33;;
5454;SDS011;2750;49.050;9.250;2024-03-08T07:30:32;25.97;;;17.63;;
5454;SDS011;2750;49.050;9.250;2024-03-08T07:35:54;24.97;;;17.33;;
5454;SDS011;2750;49.050;9.250;2024-03-08T07:41:10;21.50;;;14.50;;
5454;SDS011;2750;49.050;9.250;2024-03-08T07:46:14;23.40;;;15.63;;
5454;SDS011;2750;49.050;9.250;2024-03-08T07:51:27;20.93;;;15.57;;
5454;SDS011;2750;49.050;9.250;2024-03-08T07:56:35;24.47;;;16.80;;
5454;SDS011;2750;49.050;9.250;2024-03-08T08:01:47;22.10;;;14.60;;
5454;SDS011;2750;49.050;9.250;2024-03-08T08:06:50;23.27;;;17.07;;
5454;SDS011;2750;49.050;9.250;2024-03-08T08:12:00;24.17;;;16.53;;
5454;SDS011;2750;49.050;9.250;2024-03-08T08:17:09;26.00;;;17.03;;
5454;SDS011;2750;49.050;9.250;2024-03-08T08:22:12;20.57;;;15.80;;
5454;SDS011;2750;49.050;9.250;2024-03-08T08:27:20;21.77;;;14.90;;
5454;SDS011;2750;49.050;9.250;2024-03-08T08:32:32;21.70;;;15.30;;
5454;SDS011;2750;49.050;9.250;2024-03-08T08:37:34;21.07;;;15.77;;
5454;SDS011;2750;49.050;9.250;2024-03-08T08:42:40;22.07;;;15.97;;
5454;SDS011;2750;49.050;9.250;2024-03-08T08:47:46;22.77;;;16.77;;
5454;SDS011;2750;49.050;9.250;2024-03-08T08:53:02;21.40;;;15.37;;
5454;SDS011;2750;49.050;9.250;2024-03-08T08:58:11;19.67;;;13.30;;
5454;SDS011;2750;49.050;9.250;2024-03-08T09:03:16;24.80;;;16.57;;
5454;SDS011;2750;49.050;9.250;2024-03-08T09:08:28;21.90;;;15.43;;
5454;SDS011;2750;49.050;9.250;2024-03-08T09:13:39;23.17;;;16.20;;
5454;SDS011;2750;49.050;9.250;2024-03-08T09:18:52;22.33;;;15.80;;
5454;SDS011;2750;49.050;9.250;2024-03-08T09:24:13;20.43;;;15.50;;
5454;SDS011;2750;49.050;9.250;2024-03-08T09:29:16;18.67;;;14.77;;
5454;SDS011;2750;49.050;9.250;2024-03-08T09:34:26;19.87;;;14.80;;
5454;SDS011;2750;49.050;9.250;2024-03-08T09:39:39;19.30;;;14.23;;
5454;SDS011;2750;49.050;9.250;2024-03-08T09:45:08;19.83;;;15.03;;
5454;SDS011;2750;49.050;9.250;2024-03-08T09:50:13;20.17;;;15.07;;
5454;SDS011;2750;49.050;9.250;2024-03-08T09:55:35;21.17;;;14.43;;
5454;SDS011;2750;49.050;9.250;2024-03-08T10:00:42;23.40;;;15.70;;
5454;SDS011;2750;49.050;9.250;2024-03-08T10:05:50;20.47;;;15.50;;
5454;SDS011;2750;49.050;9.250;2024-03-08T10:11:08;22.40;;;15.57;;
5454;SDS011;2750;49.050;9.250;2024-03-08T10:16:13;19.77;;;14.47;;
5454;SDS011;2750;49.050;9.250;2024-03-08T10:21:23;21.67;;;16.07;;
5454;SDS011;2750;49.050;9.250;2024-03-08T10:26:33;20.27;;;16.00;;
5454;SDS011;2750;49.050;9.250;2024-03-08T10:31:52;23.33;;;16.57;;
5454;SDS011;2750;49.050;9.250;2024-03-08T10:37:01;21.57;;;15.33;;
5454;SDS011;2750;49.050;9.250;2024-03-08T10:42:11;21.70;;;15.83;;
5454;SDS011;2750;49.050;9.250;2024-03-08T10:47:22;21.57;;;17.23;;
5454;SDS011;2750;49.050;9.250;2024-03-08T10:52:33;21.37;;;16.17;;
5454;SDS011;2750;49.050;9.250;2024-03-08T10:57:41;24.47;;;17.57;;
5454;SDS011;2750;49.050;9.250;2024-03-08T11:02:49;20.03;;;16.27;;
5454;SDS011;2750;49.050;9.250;2024-03-08T11:07:57;20.40;;;15.70;;
5454;SDS011;2750;49.050;9.250;2024-03-08T11:13:17;25.47;;;16.30;;
5454;SDS011;2750;49.050;9.250;2024-03-08T11:18:50;20.80;;;16.17;;
5454;SDS011;2750;49.050;9.250;2024-03-08T11:24:08;20.60;;;14.20;;
5454;SDS011;2750;49.050;9.250;2024-03-08T11:34:46;21.07;;;14.63;;
5454;SDS011;2750;49.050;9.250;2024-03-08T11:39:54;21.23;;;15.97;;
5454;SDS011;2750;49.050;9.250;2024-03-08T11:45:07;19.23;;;14.80;;
5454;SDS011;2750;49.050;9.250;2024-03-08T11:50:34;20.97;;;15.87;;
5454;SDS011;2750;49.050;9.250;2024-03-08T11:55:40;21.07;;;16.50;;
5454;SDS011;2750;49.050;9.250;2024-03-08T12:00:44;20.37;;;15.40;;
5454;SDS011;2750;49.050;9.250;2024-03-08T12:11:51;21.57;;;15.17;;
5454;SDS011;2750;49.050;9.250;2024-03-08T12:16:59;20.60;;;15.40;;
5454;SDS011;2750;49.050;9.250;2024-03-08T12:22:14;20.43;;;16.03;;
5454;SDS011;2750;49.050;9.250;2024-03-08T12:27:32;22.60;;;16.00;;
5454;SDS011;2750;49.050;9.250;2024-03-08T12:32:56;18.67;;;16.13;;
5454;SDS011;2750;49.050;9.250;2024-03-08T12:38:20;17.47;;;14.63;;
5454;SDS011;2750;49.050;9.250;2024-03-08T12:43:38;23.03;;;15.93;;
5454;SDS011;2750;49.050;9.250;2024-03-08T12:49:03;19.63;;;16.50;;
5454;SDS011;2750;49.050;9.250;2024-03-08T12:54:12;19.30;;;15.37;;
5454;SDS011;2750;49.050;9.250;2024-03-08T12:59:27;18.30;;;14.80;;
5454;SDS011;2750;49.050;9.250;2024-03-08T13:04:33;19.50;;;14.87;;
5454;SDS011;2750;49.050;9.250;2024-03-08T13:09:47;17.63;;;14.97;;
5454;SDS011;2750;49.050;9.250;2024-03-08T13:15:14;18.83;;;14.77;;
5454;SDS011;2750;49.050;9.250;2024-03-08T13:26:10;17.90;;;14.87;;
5454;SDS011;2750;49.050;9.250;2024-03-08T13:38:37;19.30;;;15.50;;
5454;SDS011;2750;49.050;9.250;2024-03-08T13:43:12;19.20;;;15.47;;
5454;SDS011;2750;49.050;9.250;2024-03-08T13:48:42;16.30;;;13.00;;
5454;SDS011;2750;49.050;9.250;2024-03-08T13:53:51;17.27;;;14.47;;
5454;SDS011;2750;49.050;9.250;2024-03-08T13:58:53;16.60;;;13.87;;
5454;SDS011;2750;49.050;9.250;2024-03-08T14:04:01;18.70;;;14.53;;
5454;SDS011;2750;49.050;9.250;2024-03-08T14:09:10;19.63;;;14.53;;
5454;SDS011;2750;49.050;9.250;2024-03-08T14:14:17;18.03;;;14.83;;
5454;SDS011;2750;49.050;9.250;2024-03-08T14:19:27;18.07;;;15.20;;
5454;SDS011;2750;49.050;9.250;2024-03-08T14:24:34;19.27;;;15.00;;
5454;SDS011;2750;49.050;9.250;2024-03-08T14:29:47;22.10;;;17.70;;
5454;SDS011;2750;49.050;9.250;2024-03-08T14:35:05;18.63;;;15.20;;
5454;SDS011;2750;49.050;9.250;2024-03-08T14:40:12;20.70;;;15.83;;
5454;SDS011;2750;49.050;9.250;2024-03-08T14:45:20;17.77;;;13.80;;
5454;SDS011;2750;49.050;9.250;2024-03-08T14:50:27;17.70;;;15.40;;
5454;SDS011;2750;49.050;9.250;2024-03-08T14:55:33;18.77;;;15.30;;
5454;SDS011;2750;49.050;9.250;2024-03-08T15:00:39;18.20;;;14.80;;
5454;SDS011;2750;49.050;9.250;2024-03-08T15:05:45;19.37;;;14.63;;
5454;SDS011;2750;49.050;9.250;2024-03-08T15:10:59;19.33;;;14.27;;
5454;SDS011;2750;49.050;9.250;2024-03-08T15:16:22;19.80;;;15.77;;
5454;SDS011;2750;49.050;9.250;2024-03-08T15:21:50;19.57;;;15.43;;
5454;SDS011;2750;49.050;9.250;2024-03-08T15:27:11;17.00;;;15.07;;
5454;SDS011;2750;49.050;9.250;2024-03-08T15:32:32;18.70;;;14.47;;
5454;SDS011;2750;49.050;9.250;2024-03-08T15:37:52;18.00;;;15.33;;
5454;SDS011;2750;49.050;9.250;2024-03-08T15:43:03;20.83;;;16.63;;
5454;SDS011;2750;49.050;9.250;2024-03-08T15:48:10;25.70;;;21.17;;
5454;SDS011;2750;49.050;9.250;2024-03-08T15:53:18;19.60;;;16.00;;
5454;SDS011;2750;49.050;9.250;2024-03-08T15:58:32;18.90;;;14.83;;
5454;SDS011;2750;49.050;9.250;2024-03-08T16:03:41;19.53;;;15.67;;
5454;SDS011;2750;49.050;9.250;2024-03-08T16:09:03;21.30;;;15.07;;
5454;SDS011;2750;49.050;9.250;2024-03-08T16:14:13;19.17;;;14.77;;
5454;SDS011;2750;49.050;9.250;2024-03-08T16:19:17;16.17;;;13.33;;
5454;SDS011;2750;49.050;9.250;2024-03-08T16:24:30;18.57;;;13.80;;
5454;SDS011;2750;49.050;9.250;2024-03-08T16:29:33;21.43;;;16.13;;
5454;SDS011;2750;49.050;9.250;2024-03-08T16:34:36;18.07;;;13.60;;
5454;SDS011;2750;49.050;9.250;2024-03-08T16:39:42;19.77;;;14.47;;
5454;SDS011;2750;49.050;9.250;2024-03-08T16:44:45;20.37;;;14.33;;
5454;SDS011;2750;49.050;9.250;2024-03-08T16:49:46;16.53;;;13.47;;
5454;SDS011;2750;49.050;9.250;2024-03-08T16:54:49;16.67;;;13.80;;
5454;SDS011;2750;49.050;9.250;2024-03-08T16:59:51;21.03;;;14.83;;
5454;SDS011;2750;49.050;9.250;2024-03-08T17:04:52;19.30;;;13.83;;
5454;SDS011;2750;49.050;9.250;2024-03-08T17:09:55;18.53;;;12.47;;
5454;SDS011;2750;49.050;9.250;2024-03-08T17:14:57;16.43;;;12.50;;
5454;SDS011;2750;49.050;9.250;2024-03-08T17:19:59;18.43;;;13.33;;
5454;SDS011;2750;49.050;9.250;2024-03-08T17:25:02;20.07;;;12.80;;
5454;SDS011;2750;49.050;9.250;2024-03-08T17:30:06;18.60;;;12.70;;
5454;SDS011;2750;49.050;9.250;2024-03-08T17:35:19;18.83;;;13.33;;
5454;SDS011;2750;49.050;9.250;2024-03-08T17:40:23;20.37;;;13.50;;
5454;SDS011;2750;49.050;9.250;2024-03-08T17:45:26;17.80;;;12.57;;
5454;SDS011;2750;49.050;9.250;2024-03-08T17:50:28;16.20;;;11.50;;
5454;SDS011;2750;49.050;9.250;2024-03-08T17:55:31;14.80;;;11.60;;
5454;SDS011;2750;49.050;9.250;2024-03-08T18:00:33;17.03;;;12.03;;
5454;SDS011;2750;49.050;9.250;2024-03-08T18:05:36;15.10;;;11.13;;
5454;SDS011;2750;49.050;9.250;2024-03-08T18:10:42;15.03;;;11.37;;
5454;SDS011;2750;49.050;9.250;2024-03-08T18:15:48;14.90;;;10.37;;
5454;SDS011;2750;49.050;9.250;2024-03-08T18:20:49;17.10;;;10.50;;
5454;SDS011;2750;49.050;9.250;2024-03-08T18:25:52;15.23;;;10.00;;
5454;SDS011;2750;49.050;9.250;2024-03-08T18:30:54;14.97;;;11.40;;
5454;SDS011;2750;49.050;9.250;2024-03-08T18:35:57;13.90;;;10.83;;
5454;SDS011;2750;49.050;9.250;2024-03-08T18:41:00;13.30;;;10.63;;
5454;SDS011;2750;49.050;9.250;2024-03-08T18:46:02;14.60;;;11.03;;
5454;SDS011;2750;49.050;9.250;2024-03-08T18:51:04;11.43;;;9.37;;
5454;SDS011;2750;49.050;9.250;2024-03-08T18:56:07;13.43;;;10.63;;
5454;SDS011;2750;49.050;9.250;2024-03-08T19:01:09;14.70;;;9.40;;
5454;SDS011;2750;49.050;9.250;2024-03-08T19:06:10;12.90;;;9.63;;
5454;SDS011;2750;49.050;9.250;2024-03-08T19:11:13;13.07;;;9.00;;
5454;SDS011;2750;49.050;9.250;2024-03-08T19:16:15;11.87;;;9.87;;
5454;SDS011;2750;49.050;9.250;2024-03-08T19:21:18;10.57;;;8.97;;
5454;SDS011;2750;49.050;9.250;2024-03-08T19:26:22;12.70;;;9.33;;
5454;SDS011;2750;49.050;9.250;2024-03-08T19:31:23;12.67;;;8.80;;
5454;SDS011;2750;49.050;9.250;2024-03-08T19:36:25;10.70;;;8.27;;
5454;SDS011;2750;49.050;9.250;2024-03-08T19:41:29;12.97;;;9.03;;
5454;SDS011;2750;49.050;9.250;2024-03-08T19:46:31;10.97;;;7.97;;
5454;SDS011;2750;49.050;9.250;2024-03-08T19:51:40;11.43;;;8.33;;
5454;SDS011;2750;49.050;9.250;2024-03-08T19:56:44;10.87;;;8.20;;
5454;SDS011;2750;49.050;9.250;2024-03-08T20:01:46;10.63;;;8.13;;
5454;SDS011;2750;49.050;9.250;2024-03-08T20:06:47;11.93;;;8.13;;
5454;SDS011;2750;49.050;9.250;2024-03-08T20:11:50;10.00;;;7.77;;
5454;SDS011;2750;49.050;9.250;2024-03-08T20:16:53;10.27;;;8.00;;
5454;SDS011;2750;49.050;9.250;2024-03-08T20:21:54;12.17;;;8.13;;
5454;SDS011;2750;49.050;9.250;2024-03-08T20:26:57;11.30;;;8.10;;
5454;SDS011;2750;49.050;9.250;2024-03-08T20:32:01;12.23;;;8.43;;
5454;SDS011;2750;49.050;9.250;2024-03-08T20:37:03;11.17;;;8.37;;
5454;SDS011;2750;49.050;9.250;2024-03-08T20:42:08;9.43;;;7.80;;
5454;SDS011;2750;49.050;9.250;2024-03-08T20:47:09;12.17;;;8.40;;
5454;SDS011;2750;49.050;9.250;2024-03-08T20:52:11;11.57;;;8.43;;
5454;SDS011;2750;49.050;9.250;2024-03-08T20:57:14;12.03;;;8.00;;
5454;SDS011;2750;49.050;9.250;2024-03-08T21:02:15;11.23;;;8.60;;
5454;SDS011;2750;49.050;9.250;2024-03-08T21:07:17;12.07;;;8.70;;
5454;SDS011;2750;49.050;9.250;2024-03-08T21:12:20;12.90;;;8.07;;
5454;SDS011;2750;49.050;9.250;2024-03-08T21:17:21;10.20;;;8.27;;
5454;SDS011;2750;49.050;9.250;2024-03-08T21:22:23;12.47;;;9.70;;
5454;SDS011;2750;49.050;9.250;2024-03-08T21:27:26;20.37;;;14.80;;
5454;SDS011;2750;49.050;9.250;2024-03-08T21:32:28;14.63;;;9.93;;
5454;SDS011;2750;49.050;9.250;2024-03-08T21:37:29;15.10;;;12.07;;
5454;SDS011;2750;49.050;9.250;2024-03-08T21:42:32;12.10;;;8.40;;
5454;SDS011;2750;49.050;9.250;2024-03-08T21:47:34;10.03;;;7.57;;
5454;SDS011;2750;49.050;9.250;2024-03-08T21:52:36;10.37;;;7.97;;
5454;SDS011;2750;49.050;9.250;2024-03-08T21:57:39;10.37;;;7.83;;
5454;SDS011;2750;49.050;9.250;2024-03-08T22:02:41;11.73;;;8.43;;
5454;SDS011;2750;49.050;9.250;2024-03-08T22:07:45;12.27;;;8.67;;
5454;SDS011;2750;49.050;9.250;2024-03-08T22:12:49;12.83;;;8.50;;
5454;SDS011;2750;49.050;9.250;2024-03-08T22:17:51;12.27;;;8.80;;
5454;SDS011;2750;49.050;9.250;2024-03-08T22:22:55;14.00;;;12.17;;
5454;SDS011;2750;49.050;9.250;2024-03-08T22:27:58;11.73;;;9.43;;
5454;SDS011;2750;49.050;9.250;2024-03-08T22:33:00;11.27;;;8.40;;
5454;SDS011;2750;49.050;9.250;2024-03-08T22:38:03;11.13;;;8.17;;
5454;SDS011;2750;49.050;9.250;2024-03-08T22:43:08;20.70;;;11.97;;
5454;SDS011;2750;49.050;9.250;2024-03-08T22:48:11;16.30;;;10.73;;
5454;SDS011;2750;49.050;9.250;2024-03-08T22:53:13;14.27;;;9.90;;
5454;SDS011;2750;49.050;9.250;2024-03-08T22:58:16;11.10;;;8.60;;
5454;SDS011;2750;49.050;9.250;2024-03-08T23:03:17;15.20;;;8.57;;
5454;SDS011;2750;49.050;9.250;2024-03-08T23:08:23;12.60;;;8.83;;
5454;SDS011;2750;49.050;9.250;2024-03-08T23:13:27;12.43;;;8.30;;
5454;SDS011;2750;49.050;9.250;2024-03-08T23:18:29;13.00;;;8.87;;
5454;SDS011;2750;49.050;9.250;2024-03-08T23:23:33;11.53;;;8.67;;
5454;SDS011;2750;49.050;9.250;2024-03-08T23:28:37;12.10;;;8.27;;
5454;SDS011;2750;49.050;9.250;2024-03-08T23:33:41;14.27;;;10.17;;
5454;SDS011;2750;49.050;9.250;2024-03-08T23:38:46;13.47;;;9.17;;
5454;SDS011;2750;49.050;9.250;2024-03-08T23:43:51;13.93;;;9.03;;
5454;SDS011;2750;49.050;9.250;2024-03-08T23:48:53;14.40;;;9.83;;
5454;SDS011;2750;49.050;9.250;2024-03-08T23:53:54;13.17;;;9.53;;
5454;SDS011;2750;49.050;9.250;2024-03-08T23:58:57;12.70;;;9.67;;
